Time;durP1;ratioP1;P1;durP2;ratioP2;P2;SDS_P1;SDS_P2;PMS_P1;PMS_P2;Temp;Humidity;BMP_temperature;BMP_pressure;BME280_temperature;BME280_humidity;BME280_pressure;Samples;Min_cycle;Max_cycle;Signal;HPM_P1;HPM_P2
2023/02/12 00:01:15;;;;;;;38.75;21.30;;;6.20;99.90;;;;;;4918506;29;20237;-80
2023/02/12 00:03:43;;;;;;;31.35;18.15;;;6.30;99.90;;;;;;4923529;29;20400;-80
2023/02/12 00:06:10;;;;;;;32.25;19.80;;;6.30;99.90;;;;;;4923216;29;20279;-81
2023/02/12 00:08:41;;;;;;;33.40;19.60;;;6.30;99.90;;;;;;4922041;29;20215;-80
2023/02/12 00:11:19;;;;;;;31.10;19.65;;;6.30;99.90;;;;;;4920947;29;20221;-81
2023/02/12 00:13:47;;;;;;;42.42;22.65;;;6.30;99.90;;;;;;4918271;29;20559;-81
2023/02/12 00:16:18;;;;;;;28.80;17.83;;;6.20;99.90;;;;;;4923960;29;20233;-79
2023/02/12 00:18:45;;;;;;;27.77;19.60;;;6.20;99.90;;;;;;4942279;29;20211;-80
2023/02/12 00:21:13;;;;;;;26.63;18.20;;;6.20;99.90;;;;;;4927994;29;20235;-79
2023/02/12 00:23:41;;;;;;;32.47;21.08;;;6.20;99.90;;;;;;4921220;29;20212;-80
2023/02/12 00:26:10;;;;;;;29.00;17.70;;;6.20;99.90;;;;;;4934171;29;20234;-78
2023/02/12 00:28:37;;;;;;;35.50;20.73;;;6.20;99.90;;;;;;4931342;29;20284;-81
2023/02/12 00:31:11;;;;;;;33.85;18.75;;;6.30;99.90;;;;;;4932500;29;20214;-79
2023/02/12 00:33:38;;;;;;;32.95;20.58;;;6.30;99.90;;;;;;4921530;29;20212;-78
2023/02/12 00:36:06;;;;;;;35.13;20.58;;;6.30;99.90;;;;;;4928046;29;20255;-80
2023/02/12 00:38:34;;;;;;;38.00;19.50;;;6.20;99.90;;;;;;4920078;29;20407;-79
2023/02/12 00:41:00;;;;;;;34.22;18.80;;;6.30;99.90;;;;;;4919676;29;20212;-81
2023/02/12 00:43:27;;;;;;;32.35;19.48;;;6.40;99.90;;;;;;4920345;29;20272;-83
2023/02/12 00:45:54;;;;;;;36.55;18.52;;;6.50;99.90;;;;;;4927264;29;20767;-81
2023/02/12 00:48:22;;;;;;;32.10;19.45;;;6.40;99.90;;;;;;4931624;29;20207;-81
2023/02/12 00:50:49;;;;;;;30.77;17.80;;;6.40;99.90;;;;;;4920587;29;20263;-83
2023/02/12 00:53:16;;;;;;;28.92;17.67;;;6.40;99.90;;;;;;4925664;29;20208;-83
2023/02/12 00:55:43;;;;;;;31.88;21.75;;;6.40;99.90;;;;;;4920672;29;20268;-80
2023/02/12 00:58:11;;;;;;;36.10;20.63;;;6.50;99.90;;;;;;4926381;29;20207;-82
2023/02/12 01:00:37;;;;;;;31.17;18.92;;;6.40;99.90;;;;;;4925433;29;20208;-80
2023/02/12 01:03:05;;;;;;;24.63;16.02;;;6.40;99.90;;;;;;4921878;29;20236;-79
2023/02/12 01:05:32;;;;;;;29.98;19.73;;;6.20;99.90;;;;;;4927980;29;20212;-79
2023/02/12 01:07:59;;;;;;;28.70;17.83;;;6.20;99.90;;;;;;4922944;29;20208;-79
2023/02/12 01:10:26;;;;;;;26.25;16.83;;;6.40;99.90;;;;;;4923660;29;20280;-80
2023/02/12 01:12:53;;;;;;;25.95;16.88;;;6.40;99.90;;;;;;4926845;29;20280;-82
2023/02/12 01:15:20;;;;;;;34.58;20.15;;;6.40;99.90;;;;;;4919337;29;20223;-81
2023/02/12 01:17:49;;;;;;;27.02;16.20;;;6.30;99.90;;;;;;4930174;29;20212;-80
2023/02/12 01:20:17;;;;;;;25.70;17.63;;;6.40;99.90;;;;;;4918836;29;20214;-81
2023/02/12 01:22:44;;;;;;;29.08;17.67;;;6.40;99.90;;;;;;4928488;29;20238;-79
2023/02/12 01:25:11;;;;;;;35.28;21.13;;;6.40;99.90;;;;;;4925613;29;20231;-81
2023/02/12 01:27:38;;;;;;;31.02;18.45;;;6.30;99.90;;;;;;4918938;29;20216;-80
2023/02/12 01:30:10;;;;;;;28.40;16.25;;;6.40;99.90;;;;;;4929951;29;20223;-81
2023/02/12 01:32:38;;;;;;;28.30;17.08;;;6.50;99.90;;;;;;4921977;29;20224;-81
2023/02/12 01:35:06;;;;;;;26.52;15.23;;;6.40;99.90;;;;;;4926807;29;20208;-79
2023/02/12 01:37:37;;;;;;;33.63;20.73;;;6.40;99.90;;;;;;4919540;29;20686;-80
2023/02/12 01:40:06;;;;;;;25.27;17.17;;;6.40;99.90;;;;;;4916388;29;20216;-80
2023/02/12 01:42:33;;;;;;;29.80;17.45;;;6.40;99.90;;;;;;4932342;29;20253;-82
2023/02/12 01:45:12;;;;;;;24.90;14.82;;;6.30;99.90;;;;;;4919269;29;20216;-83
2023/02/12 01:47:44;;;;;;;27.83;17.55;;;6.30;99.90;;;;;;4919228;29;20212;-79
2023/02/12 01:50:17;;;;;;;28.58;16.70;;;6.20;99.90;;;;;;4928187;29;20204;-80
2023/02/12 01:52:49;;;;;;;33.45;16.02;;;6.30;99.90;;;;;;4919449;29;20212;-81
2023/02/12 01:55:18;;;;;;;32.90;15.80;;;6.20;99.90;;;;;;4934132;29;20220;-80
2023/02/12 01:57:46;;;;;;;27.48;17.35;;;6.30;99.90;;;;;;4918855;29;20219;-78
2023/02/12 02:00:17;;;;;;;26.75;15.13;;;6.40;99.90;;;;;;4916994;29;20523;-79
2023/02/12 02:02:57;;;;;;;24.00;16.48;;;6.40;99.90;;;;;;4921589;29;20227;-79
2023/02/12 02:05:57;;;;;;;31.27;16.02;;;6.50;99.90;;;;;;4918763;29;20814;-79
2023/02/12 02:08:24;;;;;;;24.98;15.52;;;6.50;99.90;;;;;;4899615;29;20230;-78
2023/02/12 02:10:51;;;;;;;35.55;17.48;;;6.50;99.90;;;;;;4913633;29;20219;-80
2023/02/12 02:16:26;;;;;;;25.30;13.32;;;6.60;99.90;;;;;;4927135;29;20308;-80
2023/02/12 02:19:01;;;;;;;28.60;15.95;;;6.80;99.90;;;;;;4925071;29;20219;-85
2023/02/12 02:21:53;;;;;;;28.75;15.60;;;6.60;99.90;;;;;;4920789;29;20716;-81
2023/02/12 02:24:46;;;;;;;27.95;15.65;;;6.60;99.90;;;;;;4923379;29;20251;-81
2023/02/12 02:27:21;;;;;;;33.95;17.80;;;6.70;99.90;;;;;;4926446;29;20251;-79
2023/02/12 02:30:12;;;;;;;28.13;16.35;;;6.70;99.90;;;;;;4920610;29;20279;-81
2023/02/12 02:33:20;;;;;;;30.55;16.60;;;6.70;99.90;;;;;;4927080;29;20215;-81
2023/02/12 02:36:00;;;;;;;30.67;16.60;;;6.70;99.90;;;;;;4877920;29;20255;-79
2023/02/12 02:38:39;;;;;;;22.88;13.43;;;6.70;99.90;;;;;;4914906;29;20275;-80
2023/02/12 02:41:22;;;;;;;30.42;15.70;;;6.80;99.90;;;;;;4917794;29;20432;-78
2023/02/12 02:43:51;;;;;;;19.13;14.13;;;6.80;99.90;;;;;;4921474;29;20268;-79
2023/02/12 02:46:35;;;;;;;30.77;17.05;;;6.90;99.90;;;;;;4929769;29;20220;-80
2023/02/12 02:49:06;;;;;;;20.02;13.25;;;7.00;99.90;;;;;;4949962;29;20220;-80
2023/02/12 02:51:39;;;;;;;22.20;14.60;;;7.10;99.90;;;;;;4939409;29;20200;-80
2023/02/12 02:54:18;;;;;;;19.00;13.20;;;7.00;99.90;;;;;;4932768;29;20209;-80
2023/02/12 02:56:49;;;;;;;24.33;14.77;;;6.90;99.90;;;;;;4931494;29;20216;-80
2023/02/12 02:59:25;;;;;;;19.88;12.05;;;6.90;99.90;;;;;;4933227;29;20208;-81
2023/02/12 03:02:01;;;;;;;22.65;13.80;;;6.90;99.90;;;;;;4931598;29;20244;-80
2023/02/12 03:04:37;;;;;;;21.23;13.38;;;6.90;99.90;;;;;;4924971;29;20206;-78
2023/02/12 03:07:14;;;;;;;22.83;13.40;;;7.00;99.90;;;;;;4924856;29;20416;-78
2023/02/12 03:10:03;;;;;;;21.17;12.63;;;6.90;99.90;;;;;;4936225;29;20209;-78
2023/02/12 03:12:41;;;;;;;23.23;12.70;;;6.80;99.90;;;;;;4927540;29;20220;-82
2023/02/12 03:15:33;;;;;;;30.80;14.35;;;6.90;99.90;;;;;;4918628;29;20211;-80
2023/02/12 03:18:01;;;;;;;18.27;12.43;;;6.90;99.90;;;;;;4922340;29;20212;-80
2023/02/12 03:20:35;;;;;;;26.45;13.80;;;6.90;99.90;;;;;;4927858;29;20240;-81
2023/02/12 03:23:11;;;;;;;17.05;9.65;;;6.90;99.90;;;;;;4922902;29;20232;-81
2023/02/12 03:26:13;;;;;;;20.73;11.57;;;6.80;99.90;;;;;;4936576;29;20207;-81
2023/02/12 03:28:40;;;;;;;17.60;13.98;;;6.90;99.90;;;;;;4903497;29;20211;-82
2023/02/12 03:31:10;;;;;;;23.50;14.57;;;6.80;99.90;;;;;;4923114;29;20209;-80
2023/02/12 03:34:22;;;;;;;25.95;13.15;;;6.80;99.90;;;;;;4921479;29;20260;-81
2023/02/12 03:36:55;;;;;;;26.95;13.95;;;6.70;99.90;;;;;;4927571;29;20213;-81
2023/02/12 03:39:31;;;;;;;21.20;12.63;;;6.90;99.90;;;;;;4931693;29;20660;-81
2023/02/12 03:42:24;;;;;;;28.08;11.43;;;6.80;99.90;;;;;;4928798;29;20248;-80
2023/02/12 03:45:00;;;;;;;25.20;12.55;;;6.90;99.90;;;;;;4921673;29;20260;-81
2023/02/12 03:47:46;;;;;;;23.98;12.15;;;6.90;99.90;;;;;;4922120;29;20212;-80
2023/02/12 03:50:45;;;;;;;29.17;13.70;;;6.80;99.90;;;;;;4928878;29;20274;-80
2023/02/12 03:53:11;;;;;;;19.25;11.50;;;6.70;99.90;;;;;;4918161;29;20234;-80
2023/02/12 03:55:44;;;;;;;23.42;11.80;;;6.70;99.90;;;;;;4924316;29;20208;-81
2023/02/12 03:58:15;;;;;;;31.35;14.32;;;6.60;99.90;;;;;;4911414;29;20264;-80
2023/02/12 04:00:42;;;;;;;17.80;11.35;;;6.70;99.90;;;;;;4918140;29;20433;-80
2023/02/12 04:03:09;;;;;;;21.35;12.93;;;6.60;99.90;;;;;;4925561;29;20766;-81
2023/02/12 04:05:37;;;;;;;20.67;11.05;;;6.60;99.90;;;;;;4930714;29;20255;-80
2023/02/12 04:08:07;;;;;;;22.23;11.80;;;6.80;99.90;;;;;;4916866;29;20199;-80
2023/02/12 04:11:06;;;;;;;35.35;13.13;;;6.70;99.90;;;;;;4926820;29;20574;-81
2023/02/12 04:13:43;;;;;;;32.47;13.20;;;6.80;99.90;;;;;;4901059;29;20217;-79
2023/02/12 04:16:24;;;;;;;31.52;11.40;;;6.70;99.90;;;;;;4920304;29;20249;-80
2023/02/12 04:18:52;;;;;;;19.20;12.98;;;6.70;99.90;;;;;;4929466;29;20313;-80
2023/02/12 04:21:34;;;;;;;20.40;11.07;;;6.70;99.90;;;;;;4931238;29;20220;-80
2023/02/12 04:24:22;;;;;;;18.73;11.75;;;6.70;99.90;;;;;;4927977;29;20255;-81
2023/02/12 04:27:06;;;;;;;26.75;12.73;;;6.70;99.90;;;;;;4920612;29;20236;-82
2023/02/12 04:29:58;;;;;;;19.88;12.50;;;6.70;99.90;;;;;;4927841;29;20219;-81
2023/02/12 04:32:57;;;;;;;22.88;12.15;;;6.70;99.90;;;;;;4918388;29;20220;-79
2023/02/12 04:35:50;;;;;;;28.08;12.32;;;6.60;99.90;;;;;;4931025;29;20279;-80
2023/02/12 04:38:24;;;;;;;23.20;12.02;;;6.60;99.90;;;;;;4920949;29;20209;-80
2023/02/12 04:40:51;;;;;;;26.98;13.32;;;6.60;99.90;;;;;;4944541;29;20225;-80
2023/02/12 04:43:33;;;;;;;30.80;11.80;;;6.70;99.90;;;;;;4941704;28;20240;-81
2023/02/12 04:46:07;;;;;;;21.95;13.23;;;6.70;99.90;;;;;;4946670;28;20190;-81
2023/02/12 04:48:41;;;;;;;18.13;11.70;;;6.70;99.90;;;;;;4941661;29;20213;-80
2023/02/12 04:51:09;;;;;;;24.63;11.25;;;6.70;99.90;;;;;;4938458;28;20187;-80
2023/02/12 04:53:37;;;;;;;26.27;11.05;;;6.70;99.90;;;;;;4942570;29;20232;-79
2023/02/12 04:56:04;;;;;;;24.92;11.32;;;6.80;99.90;;;;;;4932058;29;20185;-82
2023/02/12 04:58:31;;;;;;;23.35;11.18;;;6.70;99.90;;;;;;4938687;29;20196;-81
2023/02/12 05:00:58;;;;;;;33.33;12.40;;;6.80;99.90;;;;;;4931999;29;20200;-82
2023/02/12 05:03:25;;;;;;;18.90;11.18;;;6.60;99.90;;;;;;4939865;28;20251;-79
2023/02/12 05:05:52;;;;;;;20.83;11.50;;;6.50;99.90;;;;;;4939801;29;20225;-80
2023/02/12 05:08:20;;;;;;;26.58;11.80;;;6.60;99.90;;;;;;4938522;29;20219;-79
2023/02/12 05:10:46;;;;;;;19.52;11.40;;;6.80;99.90;;;;;;4942006;29;20236;-80
2023/02/12 05:13:13;;;;;;;24.38;10.40;;;6.80;99.90;;;;;;4921841;29;20489;-81
2023/02/12 05:15:40;;;;;;;22.75;11.15;;;6.70;99.90;;;;;;4919478;29;20216;-78
2023/02/12 05:18:07;;;;;;;25.27;13.65;;;6.60;99.90;;;;;;4923267;29;20213;-80
2023/02/12 05:20:35;;;;;;;17.27;9.20;;;6.70;99.90;;;;;;4919059;29;20212;-81
2023/02/12 05:23:02;;;;;;;23.13;9.68;;;6.70;99.90;;;;;;4919224;29;20236;-79
2023/02/12 05:25:30;;;;;;;25.05;9.55;;;6.60;99.90;;;;;;4919212;29;20212;-79
2023/02/12 05:27:57;;;;;;;28.83;11.68;;;6.60;99.90;;;;;;4918943;29;20256;-79
2023/02/12 05:30:24;;;;;;;27.23;10.25;;;6.60;99.90;;;;;;4919197;29;20216;-79
2023/02/12 05:32:51;;;;;;;16.23;9.95;;;6.60;99.90;;;;;;4918998;29;20216;-79
2023/02/12 05:35:18;;;;;;;27.73;12.70;;;6.50;99.90;;;;;;4924823;29;20456;-79
2023/02/12 05:37:45;;;;;;;20.27;9.57;;;6.50;99.90;;;;;;4922182;29;20345;-80
2023/02/12 05:40:12;;;;;;;16.48;10.00;;;6.50;99.90;;;;;;4919629;29;20224;-79
2023/02/12 05:42:39;;;;;;;29.48;10.30;;;6.50;99.90;;;;;;4923157;29;20235;-80
2023/02/12 05:45:07;;;;;;;15.88;9.77;;;6.40;99.90;;;;;;4921080;29;20433;-81
2023/02/12 05:47:33;;;;;;;32.15;12.45;;;6.40;99.90;;;;;;4924531;29;20405;-81
2023/02/12 05:50:00;;;;;;;31.27;11.65;;;6.40;99.90;;;;;;4921354;29;20216;-81
2023/02/12 05:52:27;;;;;;;33.00;14.57;;;6.40;99.90;;;;;;4920691;29;20212;-79
2023/02/12 05:54:54;;;;;;;30.45;11.35;;;6.40;99.90;;;;;;4919046;29;20253;-83
2023/02/12 05:57:21;;;;;;;19.20;10.40;;;6.40;99.90;;;;;;4922337;29;20728;-79
2023/02/12 05:59:48;;;;;;;21.38;10.45;;;6.40;99.90;;;;;;4918737;29;20264;-81
2023/02/12 06:02:15;;;;;;;24.98;11.77;;;6.30;99.90;;;;;;4919544;29;20219;-80
2023/02/12 06:04:42;;;;;;;23.75;11.25;;;6.50;99.90;;;;;;4924923;29;20747;-81
2023/02/12 06:07:08;;;;;;;21.20;10.05;;;6.50;99.90;;;;;;4924150;29;20208;-81
2023/02/12 06:09:36;;;;;;;23.27;11.65;;;6.60;99.90;;;;;;4919185;29;20212;-81
2023/02/12 06:12:03;;;;;;;30.30;10.70;;;6.40;99.90;;;;;;4920533;29;20507;-81
2023/02/12 06:14:30;;;;;;;19.23;9.90;;;6.60;99.90;;;;;;4918843;29;20213;-80
2023/02/12 06:16:57;;;;;;;20.35;11.57;;;6.60;99.90;;;;;;4916176;29;20279;-80
2023/02/12 06:19:24;;;;;;;23.23;10.85;;;6.70;99.90;;;;;;4917736;29;20338;-80
2023/02/12 06:21:51;;;;;;;32.47;11.80;;;6.60;99.90;;;;;;4918758;29;20563;-79
2023/02/12 06:24:18;;;;;;;20.65;10.95;;;6.80;99.90;;;;;;4927095;29;20232;-81
2023/02/12 06:26:49;;;;;;;19.38;11.20;;;6.60;99.90;;;;;;4928988;29;20212;-81
2023/02/12 06:29:18;;;;;;;22.00;10.02;;;6.60;99.90;;;;;;4923852;29;20215;-80
2023/02/12 06:31:46;;;;;;;25.17;10.43;;;6.50;99.90;;;;;;4924895;29;20267;-79
2023/02/12 06:34:17;;;;;;;29.95;10.32;;;6.40;99.90;;;;;;4925222;29;20215;-80
2023/02/12 06:36:45;;;;;;;26.80;11.52;;;6.50;99.90;;;;;;4925897;29;20252;-80
2023/02/12 06:39:15;;;;;;;20.77;11.30;;;6.50;99.90;;;;;;4930231;29;20215;-81
2023/02/12 06:41:42;;;;;;;30.23;11.00;;;6.50;99.90;;;;;;4930663;29;20215;-81
2023/02/12 06:44:11;;;;;;;16.33;9.85;;;6.60;99.90;;;;;;4922737;29;20492;-80
2023/02/12 06:46:37;;;;;;;15.38;11.00;;;6.60;99.90;;;;;;4926143;29;20259;-80
2023/02/12 06:49:05;;;;;;;21.33;10.70;;;6.60;99.90;;;;;;4922103;29;20208;-80
2023/02/12 06:51:32;;;;;;;25.83;11.27;;;6.70;99.90;;;;;;4922782;29;20244;-80
2023/02/12 06:53:59;;;;;;;26.25;10.65;;;6.50;99.90;;;;;;4930133;29;20212;-80
2023/02/12 06:56:26;;;;;;;19.63;9.45;;;6.40;99.90;;;;;;4923639;29;20253;-81
2023/02/12 06:58:59;;;;;;;22.33;12.15;;;6.50;99.90;;;;;;4917103;29;20508;-80
2023/02/12 07:01:28;;;;;;;19.60;10.13;;;6.50;99.90;;;;;;4921927;29;20220;-80
2023/02/12 07:03:58;;;;;;;15.82;9.45;;;6.50;99.90;;;;;;4921557;29;20295;-81
2023/02/12 07:06:27;;;;;;;14.48;9.68;;;6.40;99.90;;;;;;4922237;29;20283;-81
2023/02/12 07:08:54;;;;;;;16.38;9.07;;;6.40;99.90;;;;;;4926457;29;20236;-80
2023/02/12 07:11:27;;;;;;;26.55;11.30;;;6.40;99.90;;;;;;4923261;29;20256;-79
2023/02/12 07:13:54;;;;;;;17.23;9.77;;;6.40;99.90;;;;;;4931486;29;20212;-80
2023/02/12 07:16:21;;;;;;;21.58;11.30;;;6.40;99.90;;;;;;4922911;29;20212;-80
2023/02/12 07:18:49;;;;;;;26.15;10.93;;;6.50;99.90;;;;;;4922883;29;20217;-80
2023/02/12 07:21:17;;;;;;;17.85;10.15;;;6.90;99.90;;;;;;4925566;29;20248;-80
2023/02/12 07:23:49;;;;;;;23.63;10.48;;;7.10;99.90;;;;;;4921684;29;20288;-79
2023/02/12 07:26:18;;;;;;;25.70;9.57;;;7.20;99.90;;;;;;4923617;29;20204;-80
2023/02/12 07:28:45;;;;;;;21.02;10.48;;;7.50;99.90;;;;;;4925514;29;20209;-80
2023/02/12 07:31:15;;;;;;;19.45;10.23;;;7.40;99.90;;;;;;4922809;29;20209;-81
2023/02/12 07:33:43;;;;;;;31.27;10.10;;;7.30;99.90;;;;;;4921054;29;20383;-80
2023/02/12 07:36:13;;;;;;;20.42;8.55;;;7.60;99.90;;;;;;4925098;29;20216;-81
2023/02/12 07:38:41;;;;;;;15.00;9.30;;;7.80;99.90;;;;;;4919090;29;20525;-81
2023/02/12 07:41:13;;;;;;;18.08;9.35;;;7.70;99.90;;;;;;4918348;29;20213;-82
2023/02/12 07:43:42;;;;;;;19.60;10.38;;;8.00;99.90;;;;;;4920667;29;20244;-79
2023/02/12 07:46:12;;;;;;;19.15;9.07;;;8.20;99.90;;;;;;4916586;29;20248;-81
2023/02/12 07:48:39;;;;;;;20.35;9.77;;;7.60;99.90;;;;;;4920227;29;20219;-81
2023/02/12 07:51:08;;;;;;;33.10;9.07;;;7.90;99.90;;;;;;4920421;29;20268;-81
2023/02/12 07:53:37;;;;;;;22.98;9.75;;;7.50;99.90;;;;;;4929558;29;20460;-81
2023/02/12 07:56:10;;;;;;;19.80;9.15;;;7.50;99.90;;;;;;4917277;29;20204;-80
2023/02/12 07:58:39;;;;;;;16.48;8.93;;;7.40;99.90;;;;;;4916484;29;20220;-78
2023/02/12 08:01:19;;;;;;;23.02;9.50;;;7.50;99.90;;;;;;4913825;29;20213;-79
2023/02/12 08:03:47;;;;;;;18.33;8.75;;;7.60;99.90;;;;;;4922749;29;20312;-82
2023/02/12 08:06:20;;;;;;;16.42;7.88;;;7.80;99.90;;;;;;4933517;29;20208;-80
2023/02/12 08:08:47;;;;;;;14.95;7.88;;;7.60;99.90;;;;;;4926106;29;20262;-80
2023/02/12 08:11:14;;;;;;;18.23;10.35;;;7.60;99.90;;;;;;4917409;29;20223;-80
2023/02/12 08:13:42;;;;;;;16.63;8.52;;;7.40;99.90;;;;;;4924004;29;20414;-79
2023/02/12 08:16:11;;;;;;;16.40;8.10;;;7.60;99.90;;;;;;4921930;29;20212;-80
2023/02/12 08:18:39;;;;;;;15.40;8.43;;;7.80;99.90;;;;;;4930570;29;20228;-79
2023/02/12 08:21:08;;;;;;;16.33;8.82;;;7.70;99.90;;;;;;4928304;29;20201;-79
2023/02/12 08:23:36;;;;;;;19.23;7.95;;;7.90;99.90;;;;;;4932005;29;20700;-80
2023/02/12 08:26:07;;;;;;;25.00;9.70;;;7.60;99.90;;;;;;4929257;29;20445;-80
2023/02/12 08:28:37;;;;;;;26.25;9.60;;;7.70;99.90;;;;;;4925435;29;20220;-80
2023/02/12 08:31:08;;;;;;;15.52;9.30;;;7.80;99.90;;;;;;4920159;29;20716;-81
2023/02/12 08:33:35;;;;;;;19.80;10.25;;;8.00;99.90;;;;;;4918541;29;20508;-80
2023/02/12 08:36:08;;;;;;;18.50;8.63;;;8.40;99.90;;;;;;4918947;29;20210;-81
2023/02/12 08:38:36;;;;;;;21.08;8.88;;;8.40;99.90;;;;;;4918965;29;20546;-79
2023/02/12 08:41:10;;;;;;;18.58;7.80;;;8.60;99.90;;;;;;4915959;29;20215;-80
2023/02/12 08:43:39;;;;;;;27.65;12.57;;;8.40;99.90;;;;;;4925307;29;20225;-79
2023/02/12 08:46:10;;;;;;;19.98;8.18;;;8.30;99.90;;;;;;4932871;29;20266;-80
2023/02/12 08:48:40;;;;;;;19.30;10.32;;;8.50;99.90;;;;;;4923861;29;20237;-79
2023/02/12 08:51:14;;;;;;;22.10;10.25;;;8.80;99.90;;;;;;4924904;29;20212;-78
2023/02/12 08:53:43;;;;;;;12.07;8.00;;;8.90;99.90;;;;;;4926594;29;20209;-80
2023/02/12 08:56:15;;;;;;;16.33;8.32;;;8.80;99.90;;;;;;4923767;29;20220;-79
2023/02/12 08:58:43;;;;;;;20.73;8.77;;;8.70;99.90;;;;;;4922013;29;20250;-80
2023/02/12 09:01:16;;;;;;;15.32;7.57;;;8.50;99.90;;;;;;4929041;29;20250;-80
2023/02/12 09:03:44;;;;;;;19.95;8.25;;;8.40;99.90;;;;;;4928119;29;20284;-79
2023/02/12 09:06:13;;;;;;;25.50;10.43;;;8.40;99.90;;;;;;4923867;29;20510;-80
2023/02/12 09:08:40;;;;;;;21.35;9.20;;;8.60;99.90;;;;;;4928816;29;20259;-81
2023/02/12 09:11:12;;;;;;;24.15;9.63;;;8.60;99.90;;;;;;4930499;29;20255;-80
2023/02/12 09:13:39;;;;;;;14.35;8.65;;;9.00;99.90;;;;;;4916117;29;20251;-80
2023/02/12 09:16:07;;;;;;;15.40;8.80;;;9.00;99.90;;;;;;4923518;29;20207;-80
2023/02/12 09:18:35;;;;;;;19.80;8.15;;;9.10;99.90;;;;;;4932693;29;20235;-80
2023/02/12 09:21:07;;;;;;;13.88;9.52;;;9.30;99.90;;;;;;4927304;29;20299;-80
2023/02/12 09:23:34;;;;;;;19.00;9.27;;;9.00;99.90;;;;;;4925079;29;20230;-81
2023/02/12 09:26:05;;;;;;;21.02;9.68;;;9.00;99.90;;;;;;4932914;29;20263;-79
2023/02/12 09:28:33;;;;;;;23.90;10.75;;;9.10;99.90;;;;;;4924430;29;20207;-80
2023/02/12 09:31:07;;;;;;;17.88;8.15;;;9.20;99.90;;;;;;4923021;29;20254;-79
2023/02/12 09:33:35;;;;;;;17.77;8.50;;;9.30;99.90;;;;;;4919161;29;20206;-79
2023/02/12 09:36:04;;;;;;;21.77;9.57;;;9.50;99.90;;;;;;4921493;29;20207;-79
2023/02/12 09:38:31;;;;;;;18.70;9.23;;;9.80;99.90;;;;;;4924209;29;20261;-80
2023/02/12 09:41:24;;;;;;;16.42;8.30;;;9.70;99.90;;;;;;4924155;29;20249;-79
2023/02/12 09:44:04;;;;;;;13.90;7.07;;;9.50;99.90;;;;;;4921663;29;20274;-81
2023/02/12 09:46:37;;;;;;;16.13;6.68;;;9.50;99.90;;;;;;4918117;29;20244;-78
2023/02/12 09:49:09;;;;;;;22.33;8.82;;;9.10;99.90;;;;;;4921691;29;20206;-78
2023/02/12 09:51:42;;;;;;;17.45;8.65;;;9.30;99.90;;;;;;4925988;29;20215;-78
2023/02/12 09:54:15;;;;;;;18.33;8.95;;;9.30;99.90;;;;;;4924037;29;20210;-78
2023/02/12 09:56:47;;;;;;;19.63;9.32;;;9.50;99.90;;;;;;4924217;29;20217;-78
2023/02/12 09:59:39;;;;;;;16.15;8.40;;;9.70;99.90;;;;;;4924718;29;20425;-78
2023/02/12 10:02:13;;;;;;;17.27;7.47;;;9.80;99.90;;;;;;4917080;29;20507;-79
2023/02/12 10:04:42;;;;;;;13.38;7.43;;;10.20;99.90;;;;;;4914308;29;20235;-78
2023/02/12 10:07:44;;;;;;;22.33;7.88;;;10.40;99.90;;;;;;4914523;29;20203;-78
2023/02/12 10:10:41;;;;;;;15.60;8.00;;;10.90;99.90;;;;;;4922522;29;20214;-78
2023/02/12 10:13:20;;;;;;;13.70;7.15;;;11.00;99.90;;;;;;4922541;29;20386;-79
2023/02/12 10:15:59;;;;;;;15.88;9.00;;;11.10;99.90;;;;;;4929210;29;20220;-77
2023/02/12 10:18:26;;;;;;;13.73;9.30;;;11.00;99.90;;;;;;4918371;29;20278;-78
2023/02/12 10:21:30;;;;;;;11.27;6.88;;;10.60;99.90;;;;;;4925626;29;20228;-78
2023/02/12 10:24:18;;;;;;;14.18;7.95;;;10.30;99.90;;;;;;4923573;29;20253;-79
2023/02/12 10:26:51;;;;;;;12.68;6.75;;;10.20;99.90;;;;;;4916747;29;20491;-78
2023/02/12 10:29:25;;;;;;;23.70;8.63;;;10.10;99.90;;;;;;4923095;29;20247;-79
2023/02/12 10:32:00;;;;;;;15.10;8.43;;;9.90;99.90;;;;;;4925614;29;20396;-78
2023/02/12 10:34:35;;;;;;;19.88;8.40;;;9.40;99.90;;;;;;4924590;29;20744;-79
2023/02/12 10:37:20;;;;;;;15.02;8.38;;;9.40;99.90;;;;;;4926526;29;20205;-78
2023/02/12 10:39:57;;;;;;;17.05;7.60;;;9.40;99.90;;;;;;4926962;29;20255;-78
2023/02/12 10:42:38;;;;;;;17.10;7.80;;;9.40;99.90;;;;;;4921931;29;20258;-80
2023/02/12 10:45:11;;;;;;;23.70;9.00;;;9.30;99.90;;;;;;4925416;29;20574;-79
2023/02/12 10:47:38;;;;;;;20.88;7.45;;;9.30;99.90;;;;;;4918113;29;20212;-80
2023/02/12 10:50:24;;;;;;;15.13;6.68;;;9.30;99.90;;;;;;4922694;29;20242;-80
2023/02/12 10:52:54;;;;;;;9.73;7.68;;;9.40;99.90;;;;;;4922686;29;20270;-79
2023/02/12 10:55:26;;;;;;;16.98;6.95;;;9.60;99.90;;;;;;4921900;29;20500;-82
2023/02/12 10:57:54;;;;;;;13.90;6.78;;;9.70;99.90;;;;;;4922161;29;20243;-80
2023/02/12 11:00:28;;;;;;;17.30;7.88;;;9.80;99.90;;;;;;4927308;29;20239;-80
2023/02/12 11:03:10;;;;;;;13.57;6.05;;;9.80;99.90;;;;;;4930028;29;20230;-79
2023/02/12 11:05:39;;;;;;;11.13;6.85;;;10.00;99.90;;;;;;4932793;29;20227;-79
2023/02/12 11:08:06;;;;;;;14.35;7.93;;;10.40;99.90;;;;;;4923763;29;20260;-80
2023/02/12 11:10:40;;;;;;;16.17;7.60;;;10.70;99.90;;;;;;4925806;29;20223;-80
2023/02/12 11:13:25;;;;;;;19.88;6.93;;;10.90;99.90;;;;;;4923997;29;20267;-79
2023/02/12 11:15:53;;;;;;;10.57;6.25;;;11.00;99.90;;;;;;4931064;29;20266;-80
2023/02/12 11:18:27;;;;;;;9.70;5.75;;;11.10;99.90;;;;;;4936142;29;20263;-79
2023/02/12 11:21:01;;;;;;;16.23;5.85;;;11.20;99.90;;;;;;4931498;29;20548;-79
2023/02/12 11:23:29;;;;;;;11.80;6.20;;;11.30;99.90;;;;;;4934807;29;20263;-80
2023/02/12 11:25:58;;;;;;;14.18;6.45;;;11.50;99.90;;;;;;4923543;29;20457;-79
2023/02/12 11:28:25;;;;;;;12.43;8.25;;;11.40;99.90;;;;;;4936413;29;20216;-80
2023/02/12 11:30:59;;;;;;;14.27;6.80;;;11.50;99.90;;;;;;4926972;29;20211;-79
2023/02/12 11:33:34;;;;;;;14.07;6.03;;;11.50;99.90;;;;;;4919695;29;20236;-79
2023/02/12 11:36:06;;;;;;;12.23;6.75;;;11.40;99.90;;;;;;4933520;29;20200;-79
2023/02/12 11:38:37;;;;;;;11.95;6.72;;;11.50;99.90;;;;;;4921005;29;20212;-81
2023/02/12 11:41:18;;;;;;;10.43;5.88;;;11.50;99.90;;;;;;4919861;29;20216;-79
2023/02/12 11:43:45;;;;;;;14.65;5.32;;;11.20;99.90;;;;;;4927779;29;20260;-79
2023/02/12 11:46:19;;;;;;;9.20;5.18;;;11.00;99.90;;;;;;4931456;29;20205;-79
2023/02/12 11:48:47;;;;;;;10.38;5.05;;;10.70;99.90;;;;;;4927249;29;20384;-79
2023/02/12 11:51:28;;;;;;;8.60;4.80;;;10.50;99.90;;;;;;4929788;29;20655;-79
2023/02/12 11:54:01;;;;;;;11.30;5.15;;;10.40;99.90;;;;;;4933573;29;20264;-81
2023/02/12 11:56:44;;;;;;;17.13;6.50;;;10.70;99.90;;;;;;4928067;29;20204;-80
2023/02/12 11:59:34;;;;;;;8.18;5.38;;;11.10;99.90;;;;;;4923591;29;20204;-80
2023/02/12 12:02:25;;;;;;;11.98;6.20;;;11.20;99.90;;;;;;4930271;29;20240;-80
2023/02/12 12:05:03;;;;;;;9.88;5.55;;;11.40;99.90;;;;;;4935716;29;20271;-81
2023/02/12 12:07:33;;;;;;;10.93;4.32;;;11.30;99.90;;;;;;4935132;29;20213;-80
2023/02/12 12:10:04;;;;;;;17.95;5.18;;;11.40;99.90;;;;;;4927688;29;20201;-79
2023/02/12 12:12:46;;;;;;;7.43;4.68;;;11.40;99.90;;;;;;4935020;29;20445;-82
2023/02/12 12:21:44;;;;;;;13.32;6.63;;;10.80;99.90;;;;;;4925092;29;20230;-79
2023/02/12 12:24:25;;;;;;;17.95;5.93;;;10.60;99.90;;;;;;4927478;29;20254;-80
2023/02/12 12:27:03;;;;;;;12.02;5.13;;;10.50;99.90;;;;;;4932944;29;20243;-79
2023/02/12 12:29:50;;;;;;;8.20;4.50;;;10.60;99.90;;;;;;4926946;29;20251;-79
2023/02/12 12:32:21;;;;;;;13.27;5.28;;;10.30;99.90;;;;;;4932351;29;20211;-79
2023/02/12 12:34:48;;;;;;;13.00;6.05;;;10.40;99.90;;;;;;4939989;29;20247;-78
2023/02/12 12:37:33;;;;;;;14.40;6.60;;;10.40;99.90;;;;;;4923688;29;20204;-81
2023/02/12 12:40:11;;;;;;;12.18;7.07;;;10.50;99.90;;;;;;4932596;29;20458;-79
2023/02/12 12:43:01;;;;;;;18.52;5.35;;;10.30;99.90;;;;;;4929513;29;20199;-79
2023/02/12 12:45:34;;;;;;;10.23;5.05;;;10.30;99.90;;;;;;4931468;29;20358;-81
2023/02/12 12:48:23;;;;;;;10.63;5.07;;;10.10;99.90;;;;;;4927956;29;20213;-80
2023/02/12 12:51:10;;;;;;;9.15;4.45;;;10.20;99.90;;;;;;4934078;29;20400;-81
2023/02/12 12:53:50;;;;;;;16.13;5.40;;;10.60;99.90;;;;;;4939104;29;20207;-81
2023/02/12 12:56:41;;;;;;;7.57;4.35;;;10.70;99.90;;;;;;4938365;29;20232;-79
2023/02/12 12:59:17;;;;;;;7.68;4.68;;;10.60;99.90;;;;;;4924054;29;20200;-79
2023/02/12 13:01:52;;;;;;;8.43;5.22;;;10.50;99.90;;;;;;4925638;29;20244;-80
2023/02/12 13:04:36;;;;;;;9.30;3.40;;;10.40;99.90;;;;;;4929297;29;20549;-79
2023/02/12 13:07:17;;;;;;;10.05;3.10;;;10.10;99.90;;;;;;4941477;29;20219;-81
2023/02/12 13:10:01;;;;;;;9.45;3.95;;;10.00;99.90;;;;;;4939113;29;20316;-81
2023/02/12 13:13:07;;;;;;;12.25;3.47;;;10.00;99.90;;;;;;4936775;29;20225;-81
2023/02/12 13:15:54;;;;;;;8.50;3.83;;;10.00;99.90;;;;;;4924493;29;20416;-80
2023/02/12 13:18:38;;;;;;;11.48;3.25;;;10.20;99.90;;;;;;4932198;29;20514;-81
2023/02/12 13:21:31;;;;;;;8.50;3.55;;;10.30;99.90;;;;;;4934172;29;20263;-78